createdAt,value
2016-12-08T00:00:07.785Z,86.93
2016-12-08T00:02:43.707Z,87.13
2016-12-08T00:03:54.915Z,86.65
2016-12-08T00:05:05.416Z,86.55
2016-12-08T00:06:15.921Z,86.55
2016-12-08T00:07:26.417Z,87.41
2016-12-08T00:08:51.449Z,87.61
2016-12-08T00:10:01.951Z,86.93
2016-12-08T00:11:12.468Z,87.81
2016-12-08T00:12:22.979Z,87.76
2016-12-08T00:13:33.487Z,87.95
2016-12-08T00:14:44.183Z,87.66
2016-12-08T00:17:19.735Z,89.11
2016-12-08T00:18:30.251Z,88.24
2016-12-08T00:19:40.761Z,88.43
2016-12-08T00:20:51.464Z,88.53
2016-12-08T00:22:01.973Z,88.05
2016-12-08T00:23:12.476Z,87.76
2016-12-08T00:24:23.181Z,87.47
2016-12-08T00:25:34.203Z,88.43
2016-12-08T00:26:44.712Z,88.43
2016-12-08T00:27:55.222Z,87.95
2016-12-08T00:29:05.727Z,87.47
2016-12-08T00:30:30.969Z,87.85
2016-12-08T00:31:41.470Z,87.95
2016-12-08T00:32:51.963Z,87.85
2016-12-08T00:34:02.457Z,88.43
2016-12-08T00:35:13.137Z,89.01
2016-12-08T00:36:23.519Z,89.21
2016-12-08T00:37:33.911Z,89.31
2016-12-08T00:38:44.299Z,89.69
2016-12-08T00:39:54.666Z,89.06
2016-12-08T00:41:05.453Z,88.96
2016-12-08T00:42:15.841Z,88.43
2016-12-08T00:43:26.217Z,88.53
2016-12-08T00:44:36.613Z,88.73
2016-12-08T00:45:47.000Z,88.34
2016-12-08T00:47:12.128Z,88.34
2016-12-08T00:48:37.073Z,88.82
2016-12-08T00:49:47.464Z,88.15
2016-12-08T00:50:57.842Z,88.63
2016-12-08T00:52:08.706Z,87.57
2016-12-08T00:53:19.083Z,87.85
2016-12-08T00:54:29.472Z,87.95
2016-12-08T00:55:40.264Z,88.53
2016-12-08T00:56:50.661Z,88.73
2016-12-08T00:58:15.626Z,88.43
2016-12-08T00:59:26.224Z,88.53
2016-12-08T01:00:36.613Z,88.92
2016-12-08T01:01:47.201Z,88.63
2016-12-08T01:02:57.592Z,88.34
2016-12-08T01:04:08.173Z,88.63
2016-12-08T01:05:18.564Z,88.24
2016-12-08T01:06:29.356Z,87.66
2016-12-08T01:07:39.755Z,88.53
2016-12-08T01:08:50.146Z,88.43
2016-12-08T01:10:00.535Z,88.34
2016-12-08T01:11:10.980Z,88.15
2016-12-08T01:12:21.387Z,88.43
2016-12-08T01:13:32.190Z,88.43
2016-12-08T01:14:42.584Z,88.05
2016-12-08T01:15:52.983Z,87.27
2016-12-08T01:17:03.368Z,86.11
2016-12-08T01:18:13.808Z,87.18
2016-12-08T01:19:24.209Z,87.18
2016-12-08T01:20:35.278Z,87.57
2016-12-08T01:21:45.673Z,87.47
2016-12-08T01:22:56.067Z,87.47
2016-12-08T01:24:06.466Z,87.66
2016-12-08T01:25:16.858Z,87.47
2016-12-08T01:26:27.451Z,87.66
2016-12-08T01:27:37.864Z,87.66
2016-12-08T01:28:48.286Z,87.57
2016-12-08T01:29:58.696Z,87.18
2016-12-08T01:31:09.103Z,87.66
2016-12-08T01:32:19.505Z,87.57
2016-12-08T01:33:29.912Z,87.18
2016-12-08T01:34:40.324Z,86.89
2016-12-08T01:35:50.717Z,87.27
2016-12-08T01:37:01.128Z,87.81
2016-12-08T01:38:11.628Z,87.23
2016-12-08T01:39:22.038Z,87.52
2016-12-08T01:40:32.923Z,87.43
2016-12-08T01:41:43.331Z,86.85
2016-12-08T01:42:54.222Z,86.85
2016-12-08T01:44:04.825Z,87.52
2016-12-08T01:45:15.233Z,87.43
2016-12-08T01:46:25.650Z,87.13
2016-12-08T01:47:36.057Z,86.85
2016-12-08T01:48:46.449Z,87.43
2016-12-08T01:49:57.060Z,87.23
2016-12-08T01:51:07.460Z,87.04
2016-12-08T01:52:18.364Z,87.33
2016-12-08T01:53:28.767Z,86.85
2016-12-08T01:54:39.165Z,87.04
2016-12-08T01:55:49.756Z,86.85
2016-12-08T01:57:00.359Z,87.23
2016-12-08T01:59:35.731Z,87.71
2016-12-08T02:00:46.116Z,87.87
2016-12-08T02:01:56.518Z,88.35
2016-12-08T02:03:06.911Z,88.15
2016-12-08T02:04:17.293Z,88.64
2016-12-08T02:05:27.693Z,89.12
2016-12-08T02:06:38.279Z,88.93
2016-12-08T02:07:48.672Z,89.22
2016-12-08T02:08:59.066Z,89.22
2016-12-08T02:10:09.471Z,88.89
2016-12-08T02:11:19.880Z,89.22
2016-12-08T02:12:30.291Z,89.03
2016-12-08T02:13:55.227Z,88.79
2016-12-08T02:15:06.125Z,89.03
2016-12-08T02:16:16.532Z,89.07
2016-12-08T02:17:26.908Z,89.22
2016-12-08T02:18:37.698Z,89.37
2016-12-08T02:19:48.101Z,89.27
2016-12-08T02:21:27.614Z,89.56
2016-12-08T02:22:38.004Z,89.47
2016-12-08T02:23:48.406Z,89.85
2016-12-08T02:24:58.782Z,89.65
2016-12-08T02:26:09.207Z,89.65
2016-12-08T02:27:19.626Z,89.65
2016-12-08T02:28:30.016Z,90.23
2016-12-08T02:29:40.405Z,90.43
2016-12-08T02:30:50.805Z,90.23
2016-12-08T02:32:01.192Z,90.14
2016-12-08T02:33:11.563Z,90.33
2016-12-08T02:34:22.054Z,90.43
2016-12-08T02:35:32.433Z,90.53
2016-12-08T02:36:42.832Z,90.05
2016-12-08T02:37:53.248Z,90.05
2016-12-08T02:39:18.196Z,90.23
2016-12-08T02:40:28.782Z,90.53
2016-12-08T02:41:39.167Z,90.53
2016-12-08T02:42:49.559Z,89.75
2016-12-08T02:43:59.965Z,90.14
2016-12-08T02:45:10.551Z,89.95
2016-12-08T02:46:20.928Z,89.95
2016-12-08T02:47:31.322Z,90.05
2016-12-08T02:48:41.714Z,90.09
2016-12-08T02:49:52.103Z,90.33
2016-12-08T02:51:02.503Z,90.33
2016-12-08T02:52:12.889Z,89.95
2016-12-08T02:53:23.274Z,90.53
2016-12-08T02:54:33.669Z,89.95
2016-12-08T02:55:44.061Z,89.95
2016-12-08T02:56:54.647Z,89.47
2016-12-08T02:58:05.050Z,89.95
2016-12-08T02:59:29.975Z,90.05
2016-12-08T03:00:54.910Z,89.89
2016-12-08T03:02:05.303Z,90.62
2016-12-08T03:03:15.709Z,90.33
2016-12-08T03:04:26.104Z,90.05
2016-12-08T03:05:36.686Z,90.62
2016-12-08T03:06:47.077Z,90.81
2016-12-08T03:07:57.669Z,90.72
2016-12-08T03:09:08.056Z,90.81
2016-12-08T03:10:18.485Z,90.91
2016-12-08T03:11:29.075Z,91.11
2016-12-08T03:12:39.473Z,90.62
2016-12-08T03:13:49.959Z,90.81
2016-12-08T03:15:14.922Z,90.62
2016-12-08T03:16:25.805Z,90.62
2016-12-08T03:17:36.199Z,90.53
2016-12-08T03:18:46.591Z,91.11
2016-12-08T03:19:57.557Z,90.81
2016-12-08T03:21:07.941Z,91.3
2016-12-08T03:22:18.327Z,92.16
2016-12-08T03:24:53.849Z,92.07
2016-12-08T03:26:04.233Z,92.16
2016-12-08T03:27:14.622Z,92.32
2016-12-08T03:28:25.005Z,92.6
2016-12-08T03:29:35.587Z,91.93
2016-12-08T03:30:46.001Z,92.12
2016-12-08T03:31:56.785Z,92.12
2016-12-08T03:33:07.203Z,91.64
2016-12-08T03:34:17.722Z,91.68
2016-12-08T03:35:28.422Z,92.07
2016-12-08T03:36:39.192Z,91.88
2016-12-08T03:37:49.906Z,91.3
2016-12-08T03:39:00.400Z,91.39
2016-12-08T03:40:10.915Z,92.07
2016-12-08T03:41:21.618Z,91.39
2016-12-08T03:42:32.131Z,91.01
2016-12-08T03:43:42.618Z,90.62
2016-12-08T03:44:53.311Z,90.72
2016-12-08T03:46:03.986Z,91.11
2016-12-08T03:47:14.886Z,91.11
2016-12-08T03:48:25.392Z,90.81
2016-12-08T03:49:36.377Z,90.33
2016-12-08T03:50:46.888Z,90.91
2016-12-08T03:51:57.613Z,90.91
2016-12-08T03:53:08.111Z,90.81
2016-12-08T03:54:18.643Z,90.81
2016-12-08T03:55:29.138Z,90.81
2016-12-08T03:56:39.658Z,91.01
2016-12-08T03:57:50.177Z,90.62
2016-12-08T03:59:00.868Z,90.62
2016-12-08T04:00:11.368Z,90.72
2016-12-08T04:01:21.870Z,91.11
2016-12-08T04:02:32.393Z,90.91
2016-12-08T04:03:42.896Z,90.91
2016-12-08T04:04:53.415Z,91.3
2016-12-08T04:06:03.923Z,91.59
2016-12-08T04:07:14.422Z,91.68
2016-12-08T04:08:24.927Z,91.97
2016-12-08T04:09:35.445Z,91.97
2016-12-08T04:11:00.660Z,91.68
2016-12-08T04:12:11.143Z,91.59
2016-12-08T04:13:36.171Z,91.2
2016-12-08T04:14:46.659Z,91.68
2016-12-08T04:15:57.146Z,91.39
2016-12-08T04:17:07.629Z,91.2
2016-12-08T04:18:18.103Z,91.49
2016-12-08T04:19:28.580Z,91.39
2016-12-08T04:20:39.070Z,91.59
2016-12-08T04:21:49.570Z,91.39
2016-12-08T04:23:00.265Z,90.81
2016-12-08T04:24:10.800Z,91.59
2016-12-08T04:25:21.289Z,91.39
2016-12-08T04:26:31.803Z,91.2
2016-12-08T04:27:42.397Z,91.68
2016-12-08T04:28:52.881Z,91.88
2016-12-08T04:30:03.582Z,92.16
2016-12-08T04:34:05.279Z,92.36
2016-12-08T04:35:15.986Z,92.16
2016-12-08T04:36:26.658Z,92.16
2016-12-08T04:37:37.358Z,91.59
2016-12-08T04:38:48.272Z,91.88
2016-12-08T04:39:58.998Z,91.97
2016-12-08T04:41:09.719Z,91.97
2016-12-08T04:42:20.406Z,92.07
2016-12-08T04:43:31.019Z,92.07
2016-12-08T04:44:42.459Z,92.16
2016-12-08T04:45:53.111Z,91.39
2016-12-08T04:47:03.718Z,91.68
2016-12-08T04:49:39.384Z,91.97
2016-12-08T04:50:50.229Z,92.07
2016-12-08T04:52:00.924Z,91.78
2016-12-08T04:53:11.525Z,92.26
2016-12-08T04:54:22.012Z,92.16
2016-12-08T04:55:32.476Z,91.88
2016-12-08T04:56:42.938Z,91.97
2016-12-08T04:57:53.411Z,92.26
2016-12-08T04:59:03.858Z,92.26
2016-12-08T05:00:14.316Z,92.16
2016-12-08T05:01:24.760Z,92.16
2016-12-08T05:02:35.202Z,92.16
2016-12-08T05:03:45.649Z,91.97
2016-12-08T05:04:56.089Z,91.88
2016-12-08T05:06:06.527Z,91.97
2016-12-08T05:07:17.163Z,91.97
2016-12-08T05:08:27.603Z,91.68
2016-12-08T05:09:38.042Z,91.78
2016-12-08T05:11:03.023Z,91.88
2016-12-08T05:12:13.460Z,91.78
2016-12-08T05:13:23.898Z,92.16
2016-12-08T05:14:34.344Z,92.16
2016-12-08T05:15:44.782Z,92.55
2016-12-08T05:16:55.216Z,92.89
2016-12-08T05:18:05.851Z,92.55
2016-12-08T05:19:16.302Z,92.65
2016-12-08T05:20:26.739Z,93.04
2016-12-08T05:21:37.178Z,92.46
2016-12-08T05:22:47.615Z,92.46
2016-12-08T05:23:58.049Z,92.55
2016-12-08T05:25:08.484Z,92.55
2016-12-08T05:26:33.499Z,92.94
2016-12-08T05:27:43.940Z,92.74
2016-12-08T05:29:09.119Z,92.07
2016-12-08T05:30:19.560Z,92.74
2016-12-08T05:31:29.998Z,92.65
2016-12-08T05:32:40.438Z,92.46
2016-12-08T05:33:50.875Z,92.65
2016-12-08T05:35:01.511Z,92.36
2016-12-08T05:36:11.951Z,92.55
2016-12-08T05:37:22.390Z,92.84
2016-12-08T05:38:32.828Z,92.99
2016-12-08T05:39:43.266Z,93.08
2016-12-08T05:40:53.702Z,92.8
2016-12-08T05:42:04.145Z,93.18
2016-12-08T05:43:14.583Z,93.47
2016-12-08T05:44:25.022Z,92.99
2016-12-08T05:45:35.455Z,93.32
2016-12-08T05:46:46.095Z,92.46
2016-12-08T05:47:56.529Z,92.6
2016-12-08T05:49:06.973Z,92.12
2016-12-08T05:50:17.407Z,92.12
2016-12-08T05:51:27.846Z,91.83
2016-12-08T05:52:38.480Z,92.12
2016-12-08T05:53:48.919Z,92.12
2016-12-08T05:54:59.389Z,92.12
2016-12-08T05:56:09.824Z,91.93
2016-12-08T05:57:20.262Z,92.12
2016-12-08T05:58:30.894Z,92.32
2016-12-08T05:59:41.330Z,92.5
2016-12-08T06:00:51.764Z,92.5
2016-12-08T06:02:02.199Z,92.7
2016-12-08T06:03:12.637Z,92.6
2016-12-08T06:04:23.074Z,92.32
2016-12-08T06:05:33.519Z,92.5
2016-12-08T06:06:44.441Z,92.7
2016-12-08T06:07:54.873Z,92.94
2016-12-08T06:09:05.308Z,92.94
2016-12-08T06:10:15.949Z,93.13
2016-12-08T06:11:40.930Z,93.43
2016-12-08T06:12:51.371Z,93.04
2016-12-08T06:14:16.314Z,93.23
2016-12-08T06:15:26.691Z,93.52
2016-12-08T06:16:37.047Z,93.23
2016-12-08T06:17:47.365Z,93.28
2016-12-08T06:19:12.285Z,93.33
2016-12-08T06:20:22.680Z,93.13
2016-12-08T06:21:33.011Z,93.81
2016-12-08T06:22:43.361Z,93.81
2016-12-08T06:23:53.699Z,93.62
2016-12-08T06:25:04.043Z,93.62
2016-12-08T06:26:14.580Z,94.1
2016-12-08T06:27:24.922Z,93.66
2016-12-08T06:28:35.286Z,93.71
2016-12-08T06:29:45.628Z,94.1
2016-12-08T06:30:55.978Z,94
2016-12-08T06:33:31.439Z,93.23
2016-12-08T06:34:41.780Z,93.08
2016-12-08T06:35:52.185Z,93.08
2016-12-08T06:37:02.546Z,93.28
2016-12-08T06:38:13.106Z,92.7
2016-12-08T06:39:23.514Z,93.18
2016-12-08T06:40:33.854Z,93.37
2016-12-08T06:41:44.228Z,93.18
2016-12-08T06:42:54.813Z,92.8
2016-12-08T06:44:05.210Z,92.99
2016-12-08T06:45:15.537Z,93.13
2016-12-08T06:46:25.888Z,93.13
2016-12-08T06:47:36.275Z,93.23
2016-12-08T06:48:46.850Z,92.94
2016-12-08T06:49:57.242Z,93.13
2016-12-08T06:51:07.594Z,92.85
2016-12-08T06:52:32.490Z,93.23
2016-12-08T06:53:42.887Z,93.62
2016-12-08T06:54:53.456Z,93.04
2016-12-08T06:56:03.825Z,92.94
2016-12-08T06:57:14.229Z,93.81
2016-12-08T06:58:24.602Z,93.52
2016-12-08T06:59:34.965Z,93.81
2016-12-08T07:00:45.374Z,93.91
2016-12-08T07:01:55.751Z,94.1
2016-12-08T07:03:06.184Z,93.71
2016-12-08T07:04:16.537Z,93.43
2016-12-08T07:05:41.423Z,93.13
2016-12-08T07:06:51.741Z,92.94
2016-12-08T07:08:02.081Z,92.94
2016-12-08T07:09:12.425Z,92.56
2016-12-08T07:10:22.804Z,92.46
2016-12-08T07:11:47.725Z,92.85
2016-12-08T07:12:58.067Z,92.17
2016-12-08T07:14:22.951Z,92.32
2016-12-08T07:15:33.316Z,92.32
2016-12-08T07:16:43.664Z,92.22
2016-12-08T07:17:54.005Z,91.25
2016-12-08T07:20:29.333Z,92.22
2016-12-08T07:21:39.941Z,91.16
2016-12-08T07:22:50.337Z,91.44
2016-12-08T07:24:00.762Z,91.44
2016-12-08T07:25:11.177Z,90.96
2016-12-08T07:26:21.546Z,90.87
2016-12-08T07:27:31.907Z,92.22
2016-12-08T07:28:42.321Z,92.02
2016-12-08T07:29:52.749Z,92.41
2016-12-08T07:31:03.613Z,91.83
2016-12-08T07:32:14.252Z,91.93
2016-12-08T07:33:24.692Z,91.64
2016-12-08T07:34:35.129Z,91.93
2016-12-08T07:35:45.567Z,91.64
2016-12-08T07:36:56.010Z,92.12
2016-12-08T07:38:07.129Z,91.83
2016-12-08T07:39:17.456Z,91.83
2016-12-08T07:41:52.667Z,91.64
2016-12-08T07:43:02.991Z,91.74
2016-12-08T07:44:13.505Z,91.93
2016-12-08T07:45:23.888Z,91.54
2016-12-08T07:46:34.297Z,91.25
2016-12-08T07:47:44.708Z,91.44
2016-12-08T07:48:55.314Z,91.93
2016-12-08T07:50:05.726Z,92.12
2016-12-08T07:51:16.136Z,91.93
2016-12-08T07:52:26.549Z,91.93
2016-12-08T07:53:36.957Z,92.02
2016-12-08T07:54:47.560Z,92.02
2016-12-08T07:55:57.970Z,91.83
2016-12-08T07:57:08.376Z,92.08
2016-12-08T07:58:33.334Z,92.75
2016-12-08T07:59:58.295Z,92.46
2016-12-08T08:01:23.258Z,93.23
2016-12-08T08:02:33.668Z,93.23
2016-12-08T08:03:44.074Z,92.56
2016-12-08T08:04:54.484Z,92.56
2016-12-08T08:06:05.095Z,92.56
2016-12-08T08:07:15.501Z,92.75
2016-12-08T08:08:25.908Z,92.46
2016-12-08T08:09:36.319Z,92.75
2016-12-08T08:10:46.727Z,92.85
2016-12-08T08:11:57.133Z,92.27
2016-12-08T08:13:07.542Z,91.78
2016-12-08T08:14:17.951Z,92.27
2016-12-08T08:15:28.359Z,92.17
2016-12-08T08:16:38.966Z,92.08
2016-12-08T08:17:49.377Z,91.88
2016-12-08T08:18:59.786Z,91.78
2016-12-08T08:20:10.193Z,92.08
2016-12-08T08:21:20.600Z,91.93
2016-12-08T08:22:31.007Z,92.02
2016-12-08T08:23:55.965Z,92.22
2016-12-08T08:25:06.377Z,91.88
2016-12-08T08:26:16.791Z,92.36
2016-12-08T08:27:27.196Z,92.36
2016-12-08T08:28:37.602Z,92.27
2016-12-08T08:29:48.015Z,91.88
2016-12-08T08:30:58.398Z,91.88
2016-12-08T08:32:08.715Z,92.08
2016-12-08T08:33:19.717Z,91.98
2016-12-08T08:34:30.031Z,92.17
2016-12-08T08:35:40.347Z,91.6
2016-12-08T08:36:50.666Z,91.83
2016-12-08T08:38:00.988Z,92.02
2016-12-08T08:39:11.508Z,91.3
2016-12-08T08:40:21.823Z,91.64
2016-12-08T08:41:32.141Z,91.25
2016-12-08T08:42:42.470Z,91.64
2016-12-08T08:43:52.790Z,91.44
2016-12-08T08:45:03.131Z,91.25
2016-12-08T08:46:13.452Z,91.25
2016-12-08T08:47:23.769Z,91.25
2016-12-08T08:48:34.089Z,91.11
2016-12-08T08:49:44.899Z,91.3
2016-12-08T08:50:55.211Z,91.4
2016-12-08T08:52:05.530Z,91.11
2016-12-08T08:53:15.850Z,91.88
2016-12-08T08:54:26.165Z,91.98
2016-12-08T08:55:36.481Z,91.69
2016-12-08T08:56:46.797Z,91.69
2016-12-08T08:58:11.685Z,91.88
2016-12-08T08:59:36.569Z,91.88
2016-12-08T09:01:01.454Z,92.08
2016-12-08T09:02:11.971Z,91.6
2016-12-08T09:03:22.288Z,91.6
2016-12-08T09:04:32.605Z,91.4
2016-12-08T09:05:42.919Z,91.3
2016-12-08T09:06:53.240Z,91.6
2016-12-08T09:08:03.759Z,91.88
2016-12-08T09:09:14.082Z,91.3
2016-12-08T09:10:24.403Z,90.82
2016-12-08T09:11:34.720Z,89.95
2016-12-08T09:12:45.035Z,89.9
2016-12-08T09:13:55.349Z,89.71
2016-12-08T09:15:05.669Z,89.51
2016-12-08T09:16:16.040Z,89.32
2016-12-08T09:17:26.455Z,89.71
2016-12-08T09:18:36.862Z,89.42
2016-12-08T09:19:47.468Z,88.93
2016-12-08T09:20:57.910Z,88.59
2016-12-08T09:22:08.313Z,87.63
2016-12-08T09:23:33.271Z,88.02
2016-12-08T09:24:43.680Z,87.53
2016-12-08T09:25:54.289Z,87.05
2016-12-08T09:27:05.183Z,86.86
2016-12-08T09:28:15.588Z,86.76
2016-12-08T09:29:25.998Z,86.76
2016-12-08T09:30:36.405Z,86.76
2016-12-08T09:31:46.841Z,87.15
2016-12-08T09:32:57.741Z,86.96
2016-12-08T09:34:08.161Z,86.96
2016-12-08T09:35:18.573Z,86.76
2016-12-08T09:36:29.187Z,87.15
2016-12-08T09:37:39.602Z,86.66
2016-12-08T09:38:50.009Z,86.28
2016-12-08T09:40:00.420Z,86.18
2016-12-08T09:41:10.827Z,86.28
2016-12-08T09:42:21.437Z,86.18
2016-12-08T09:43:31.847Z,86.22
2016-12-08T09:44:42.256Z,86.42
2016-12-08T09:45:52.663Z,86.13
2016-12-08T09:47:03.554Z,86.13
2016-12-08T09:48:14.165Z,85.74
2016-12-08T09:49:24.606Z,85.45
2016-12-08T09:50:35.018Z,85.45
2016-12-08T09:51:45.427Z,85.21
2016-12-08T09:52:55.838Z,85.59
2016-12-08T09:54:06.246Z,85.01
2016-12-08T09:55:16.657Z,85.21
2016-12-08T09:56:27.067Z,84.63
2016-12-08T09:57:37.471Z,84.43
2016-12-08T09:58:47.920Z,84.91
2016-12-08T09:59:58.646Z,85.01
2016-12-08T10:01:09.141Z,84.91
2016-12-08T10:02:19.577Z,85.4
2016-12-08T10:03:30.013Z,85.21
2016-12-08T10:04:40.449Z,85.4
2016-12-08T10:05:51.088Z,85.21
2016-12-08T10:07:01.529Z,85.11
2016-12-08T10:08:11.967Z,85.4
2016-12-08T10:09:22.403Z,85.21
2016-12-08T10:10:32.839Z,84.43
2016-12-08T10:11:43.478Z,84.43
2016-12-08T10:12:54.409Z,83.95
2016-12-08T10:14:05.331Z,83.75
2016-12-08T10:15:15.798Z,84.09
2016-12-08T10:16:26.238Z,83.8
2016-12-08T10:17:36.878Z,83.03
2016-12-08T10:18:47.317Z,83.31
2016-12-08T10:19:58.244Z,83.12
2016-12-08T10:21:08.698Z,83.31
2016-12-08T10:22:19.166Z,82.93
2016-12-08T10:23:30.094Z,83.41
2016-12-08T10:24:40.560Z,83.51
2016-12-08T10:26:05.544Z,83.51
2016-12-08T10:28:40.962Z,82.15
2016-12-08T10:29:51.403Z,82.35
2016-12-08T10:31:01.848Z,82.54
2016-12-08T10:32:12.284Z,81.9
2016-12-08T10:33:22.712Z,81.81
2016-12-08T10:34:33.469Z,81.81
2016-12-08T10:35:43.980Z,82
2016-12-08T10:36:54.300Z,81.32
2016-12-08T10:38:04.627Z,81.62
2016-12-08T10:39:14.949Z,81.42
2016-12-08T10:40:25.268Z,80.94
2016-12-08T10:41:35.585Z,80.26
2016-12-08T10:42:45.915Z,80.03
2016-12-08T10:43:56.238Z,80.36
2016-12-08T10:45:06.559Z,80.55
2016-12-08T10:46:17.079Z,79.97
2016-12-08T10:47:27.400Z,80.16
2016-12-08T10:48:37.720Z,79.87
2016-12-08T10:49:48.040Z,80.55
2016-12-08T10:50:58.362Z,81.04
2016-12-08T10:52:08.880Z,80.55
2016-12-08T10:53:19.198Z,80.65
2016-12-08T10:54:29.516Z,80.65
2016-12-08T10:55:39.835Z,80.55
2016-12-08T10:56:50.186Z,80.07
2016-12-08T10:58:00.504Z,78.71
2016-12-08T10:59:10.819Z,77.65
2016-12-08T11:00:21.137Z,77.75
2016-12-08T11:01:31.464Z,78.71
2016-12-08T11:02:41.784Z,79.04
2016-12-08T11:03:52.101Z,79.29
2016-12-08T11:05:02.425Z,78.23
2016-12-08T11:06:12.742Z,77.3
2016-12-08T11:07:23.061Z,77.45
2016-12-08T11:08:33.388Z,77.65
2016-12-08T11:09:43.743Z,76.78
2016-12-08T11:10:54.178Z,76.49
2016-12-08T11:12:04.613Z,76.14
2016-12-08T11:13:15.050Z,76.33
2016-12-08T11:14:25.493Z,75.7
2016-12-08T11:15:36.134Z,74.73
2016-12-08T11:16:46.571Z,74.53
2016-12-08T11:17:57.016Z,73.57
2016-12-08T11:19:07.457Z,73.02
2016-12-08T11:20:17.891Z,71.95
2016-12-08T11:21:28.524Z,72.15
2016-12-08T11:22:54.250Z,71.56
2016-12-08T11:24:04.685Z,71.47
2016-12-08T11:25:15.116Z,71.76
2016-12-08T11:26:25.550Z,70.25
2016-12-08T11:27:36.185Z,69.76
2016-12-08T11:28:46.619Z,69.08
2016-12-08T11:29:57.055Z,69.37
2016-12-08T11:31:07.585Z,68.44
2016-12-08T11:32:18.324Z,68.63
2016-12-08T11:33:28.855Z,69.12
2016-12-08T11:34:39.388Z,68.73
2016-12-08T11:35:49.915Z,68.66
2016-12-08T11:37:00.440Z,67.69
2016-12-08T11:38:25.498Z,66.95
2016-12-08T11:39:36.030Z,66.17
2016-12-08T11:41:01.087Z,65.98
2016-12-08T11:42:11.622Z,65.05
2016-12-08T11:43:36.881Z,64.75
2016-12-08T11:44:47.415Z,64.95
2016-12-08T11:45:57.948Z,64.11
2016-12-08T11:47:08.480Z,63.32
2016-12-08T11:48:19.011Z,63.32
2016-12-08T11:49:29.740Z,63.71
2016-12-08T11:50:40.274Z,63.07
2016-12-08T11:51:50.805Z,63.07
2016-12-08T11:53:01.859Z,60.67
2016-12-08T11:54:12.394Z,59.89
2016-12-08T11:55:23.123Z,59.31
2016-12-08T11:56:33.692Z,59.41
2016-12-08T11:57:44.226Z,59.41
2016-12-08T11:58:54.755Z,59.99
2016-12-08T12:00:05.289Z,59.43
2016-12-08T12:01:16.020Z,59.53
2016-12-08T12:02:41.084Z,59.89
2016-12-08T12:03:51.613Z,59.43
2016-12-08T12:05:02.154Z,57.78
2016-12-08T12:06:13.185Z,57.68
2016-12-08T12:07:23.949Z,57.97
2016-12-08T12:08:34.476Z,57.2
2016-12-08T12:09:45.009Z,57.46
2016-12-08T12:10:55.543Z,57.87
2016-12-08T12:12:20.804Z,57.78
2016-12-08T12:13:31.335Z,57.87
2016-12-08T12:14:41.871Z,58.36
2016-12-08T12:15:52.371Z,57.12
2016-12-08T12:17:02.812Z,56.76
2016-12-08T12:18:13.251Z,56.15
2016-12-08T12:19:23.694Z,56.25
2016-12-08T12:20:48.683Z,56.45
2016-12-08T12:21:59.125Z,56.15
2016-12-08T12:23:10.060Z,56.35
2016-12-08T12:24:35.246Z,56.35
2016-12-08T12:26:00.229Z,57.71
2016-12-08T12:27:39.765Z,55.21
2016-12-08T12:28:50.408Z,55.94
2016-12-08T12:30:00.852Z,53.7
2016-12-08T12:32:36.273Z,52.17
2016-12-08T12:33:46.712Z,51.02
2016-12-08T12:34:57.150Z,51.97
2016-12-08T12:36:07.599Z,50.04
2016-12-08T12:38:58.262Z,49.85
2016-12-08T12:40:09.205Z,50.65
2016-12-08T12:41:19.648Z,50.36
2016-12-08T12:42:30.092Z,49.22
2016-12-08T12:43:41.021Z,48.05
2016-12-08T12:44:51.660Z,47.17
2016-12-08T12:46:16.644Z,46.48
2016-12-08T12:47:27.086Z,46.39
2016-12-08T12:48:37.537Z,46.39
2016-12-08T12:49:48.878Z,46.48
2016-12-08T12:50:59.325Z,46.68
2016-12-08T12:52:09.911Z,46.19
2016-12-08T12:53:34.888Z,46.41
2016-12-08T12:54:45.218Z,46.48
2016-12-08T12:55:55.741Z,44.87
2016-12-08T12:57:06.670Z,44.74
2016-12-08T12:58:16.991Z,46.11
2016-12-08T12:59:27.332Z,46.39
2016-12-08T13:00:37.856Z,46.31
2016-12-08T13:01:48.199Z,45.92
2016-12-08T13:02:59.009Z,45.55
2016-12-08T13:04:23.909Z,44.2
2016-12-08T13:05:34.238Z,44.67
2016-12-08T13:06:44.763Z,44.59
2016-12-08T13:07:55.092Z,43.91
2016-12-08T13:09:05.420Z,43.54
2016-12-08T13:10:15.744Z,43.44
2016-12-08T13:11:26.293Z,43.84
2016-12-08T13:12:36.618Z,43.34
2016-12-08T13:13:46.943Z,43.34
2016-12-08T13:14:57.268Z,44.01
2016-12-08T13:16:07.592Z,44.3
2016-12-08T13:17:18.116Z,45.1
2016-12-08T13:18:28.473Z,43.34
2016-12-08T13:19:38.797Z,42.97
2016-12-08T13:20:49.291Z,44.03
2016-12-08T13:22:00.093Z,43.34
2016-12-08T13:23:10.620Z,42.68
2016-12-08T13:28:38.168Z,42.38
2016-12-08T13:29:48.503Z,42.78
2016-12-08T13:30:58.838Z,42.95
2016-12-08T13:32:09.168Z,43.23
2016-12-08T13:33:19.496Z,42.93
2016-12-08T13:34:30.022Z,42.93
2016-12-08T13:35:40.352Z,42.93
2016-12-08T13:37:05.250Z,42.93
2016-12-08T13:38:15.575Z,42.74
2016-12-08T13:39:25.898Z,42.27
2016-12-08T13:40:36.261Z,42.66
2016-12-08T13:41:46.586Z,43.03
2016-12-08T13:42:56.914Z,42.93
2016-12-08T13:44:07.241Z,42.54
2016-12-08T13:45:17.574Z,42.56
2016-12-08T13:46:42.945Z,43.03
2016-12-08T13:47:53.741Z,42.25
2016-12-08T13:49:04.065Z,41.29
2016-12-08T13:50:29.163Z,39.86
2016-12-08T13:51:39.488Z,41.45
2016-12-08T13:54:14.712Z,41.03
2016-12-08T13:55:26.004Z,40.94
2016-12-08T13:56:36.532Z,40.94
2016-12-08T13:58:01.430Z,40.06
2016-12-08T13:59:12.234Z,38.82
2016-12-08T14:00:23.036Z,40.01
2016-12-08T14:01:33.560Z,39.69
2016-12-08T14:02:58.457Z,40.27
2016-12-08T14:04:09.274Z,40.95
2016-12-08T14:06:44.719Z,40.78
2016-12-08T14:07:55.060Z,41.08
2016-12-08T14:09:05.395Z,40.11
2016-12-08T14:10:30.313Z,40.41
2016-12-08T14:11:41.330Z,40.41
2016-12-08T14:12:51.671Z,39.72
2016-12-08T14:14:02.399Z,39.22
2016-12-08T15:18:41.952Z,47.5
2016-12-08T15:19:52.508Z,46.75
2016-12-08T15:21:03.069Z,47.43
2016-12-08T15:22:13.631Z,47.94
2016-12-08T15:23:24.183Z,46.01
2016-12-08T15:24:35.241Z,46.11
2016-12-08T15:25:45.800Z,46.01
2016-12-08T15:26:56.886Z,46.4
2016-12-08T15:28:07.456Z,46.3
2016-12-08T15:29:18.004Z,45.91
2016-12-08T15:30:43.083Z,46.28
2016-12-08T15:31:53.650Z,46.75
2016-12-08T15:33:04.199Z,46.65
2016-12-08T15:34:14.740Z,47.63
2016-12-08T15:35:25.312Z,47.6
2016-12-08T15:36:36.077Z,47.24
2016-12-08T15:37:46.641Z,47.04
2016-12-08T15:38:57.218Z,46.36
2016-12-08T15:40:07.793Z,46.65
2016-12-08T15:41:18.571Z,46.84
2016-12-08T15:42:29.164Z,46.65
2016-12-08T15:43:54.255Z,46.75
2016-12-08T15:45:19.341Z,46.43
2016-12-08T15:46:29.997Z,46.45
2016-12-08T15:47:40.582Z,45.67
2016-12-08T15:52:32.586Z,45.13
2016-12-08T15:53:43.146Z,45.1
2016-12-08T15:54:53.735Z,45.1
2016-12-08T15:56:04.315Z,45.1
2016-12-08T15:57:43.925Z,43.84
2016-12-08T15:58:54.500Z,44.52
2016-12-08T16:00:05.525Z,45.2
2016-12-08T16:01:16.528Z,44.03
2016-12-08T16:03:52.110Z,44.32
2016-12-08T16:05:02.579Z,45.4
2016-12-08T16:06:13.052Z,45.37
2016-12-08T16:07:23.517Z,45.69
2016-12-08T16:08:34.067Z,44.13
2016-12-08T16:09:44.517Z,44.23
2016-12-08T16:10:54.985Z,43.03
2016-12-08T16:12:05.482Z,42.54
2016-12-08T16:13:15.976Z,43.52
2016-12-08T16:14:41.090Z,43.59
2016-12-08T16:16:06.121Z,44.48
2016-12-08T16:17:16.599Z,44.87
2016-12-08T16:19:52.187Z,44.3
2016-12-08T16:21:02.669Z,44.89
2016-12-08T16:22:13.140Z,45.36
2016-12-08T16:24:48.739Z,46.33
2016-12-08T16:25:59.209Z,46.53
2016-12-08T16:27:10.186Z,47.31
2016-12-08T16:28:20.639Z,47.41
2016-12-08T16:29:31.215Z,46.06
2016-12-08T16:30:41.689Z,43.62
2016-12-08T16:31:52.169Z,44.13
2016-12-08T16:33:02.643Z,44.49
2016-12-08T16:34:13.129Z,43.71
2016-12-08T16:35:23.803Z,43.73
2016-12-08T16:36:34.479Z,44.42
2016-12-08T16:37:44.938Z,44.23
2016-12-08T16:38:55.428Z,44.62
2016-12-08T16:40:05.921Z,44.91
2016-12-08T16:41:31.125Z,45.01
2016-12-08T16:42:41.618Z,45.3
2016-12-08T16:43:52.115Z,44.91
2016-12-08T16:45:02.604Z,45.59
2016-12-08T16:46:13.095Z,45.5
2016-12-08T16:47:23.568Z,46.26
2016-12-08T16:48:34.049Z,45.97
2016-12-08T16:49:44.540Z,45.94
2016-12-08T16:50:54.999Z,46.23
2016-12-08T16:52:05.658Z,46.33
2016-12-08T16:53:30.672Z,46.26
2016-12-08T16:54:41.145Z,46.06
2016-12-08T16:56:06.160Z,44.49
2016-12-08T16:58:41.852Z,44.98
2016-12-08T16:59:52.345Z,46.16
2016-12-08T17:01:02.817Z,46.18
2016-12-08T17:02:13.304Z,45.98
2016-12-08T17:03:23.870Z,45.3